Time;durP1;ratioP1;P1;durP2;ratioP2;P2;SDS_P1;SDS_P2;PMS_P1;PMS_P2;Temp;Humidity;BMP_temperature;BMP_pressure;BME280_temperature;BME280_humidity;BME280_pressure;Samples;Min_cycle;Max_cycle;Signal;HPM_P1;HPM_P2
2022/07/08 00:02:27;;;;;;;9.88;5.60;;;12.50;29.90;;;12.95;100.00;99519.38;4980821;28;120332;-75
2022/07/08 00:04:56;;;;;;;8.60;5.35;;;12.40;53.40;;;12.80;100.00;99519.91;4980405;28;119382;-75
2022/07/08 00:07:24;;;;;;;9.60;5.65;;;12.40;95.90;;;12.72;100.00;99523.47;4979910;28;129879;-77
2022/07/08 00:09:54;;;;;;;8.00;4.93;;;12.30;99.90;;;12.64;100.00;99521.59;4980133;28;129443;-76
2022/07/08 00:12:22;;;;;;;7.70;4.95;;;12.30;99.90;;;12.66;100.00;99517.41;4980159;28;119478;-75
2022/07/08 00:14:51;;;;;;;9.23;5.25;;;12.20;99.90;;;12.73;100.00;99514.97;4980100;28;119751;-82
2022/07/08 00:17:20;;;;;;;9.32;5.53;;;12.20;99.90;;;12.79;100.00;99518.31;4978543;28;130844;-74
2022/07/08 00:19:50;;;;;;;10.82;5.20;;;12.20;99.90;;;12.84;100.00;99525.50;4965506;28;128544;-75
2022/07/08 00:22:18;;;;;;;9.88;5.50;;;12.30;99.90;;;12.89;100.00;99526.13;4980217;28;119655;-76
2022/07/08 00:24:47;;;;;;;8.45;5.18;;;12.30;99.90;;;12.92;100.00;99524.69;4965715;28;119001;-76
2022/07/08 00:27:16;;;;;;;8.65;5.43;;;12.20;99.90;;;12.94;100.00;99525.16;4979758;28;129845;-74
2022/07/08 00:29:45;;;;;;;8.05;5.40;;;12.20;99.90;;;12.95;100.00;99529.50;4979512;28;129709;-75
2022/07/08 00:32:13;;;;;;;8.93;5.57;;;12.20;99.90;;;12.97;100.00;99531.88;4979799;28;120032;-75
2022/07/08 00:34:42;;;;;;;9.55;5.20;;;12.30;99.90;;;13.01;100.00;99533.63;4980365;28;119536;-75
2022/07/08 00:37:12;;;;;;;7.55;5.22;;;12.30;99.90;;;13.07;100.00;99531.50;4979668;28;130909;-75
2022/07/08 00:39:40;;;;;;;9.48;6.05;;;12.40;99.90;;;13.11;100.00;99524.28;4964895;28;129218;-75
2022/07/08 00:42:09;;;;;;;8.65;5.93;;;12.50;99.90;;;13.12;100.00;99528.63;4978336;28;122027;-76
2022/07/08 00:44:38;;;;;;;10.48;5.82;;;12.50;99.90;;;13.11;100.00;99525.06;4980247;28;123543;-74
2022/07/08 00:47:07;;;;;;;9.13;5.90;;;12.60;99.90;;;13.07;100.00;99531.50;4964902;28;129290;-75
2022/07/08 00:49:35;;;;;;;9.93;5.82;;;12.60;99.90;;;13.01;100.00;99521.91;4979139;28;130700;-75
2022/07/08 00:52:05;;;;;;;9.85;5.72;;;12.60;99.90;;;13.00;100.00;99531.22;4979668;28;119627;-75
2022/07/08 00:54:37;;;;;;;7.80;5.70;;;12.60;99.90;;;13.02;100.00;99528.97;4981422;28;120192;-74
2022/07/08 00:57:06;;;;;;;7.75;5.25;;;12.60;99.90;;;13.10;100.00;99530.84;4964537;28;130094;-75
2022/07/08 00:59:35;;;;;;;9.43;6.43;;;12.70;99.90;;;13.18;100.00;99532.72;4978967;28;129711;-75
2022/07/08 01:02:04;;;;;;;9.02;6.30;;;12.70;99.90;;;13.27;100.00;99529.97;4979291;28;119778;-74
2022/07/08 01:04:33;;;;;;;9.45;5.70;;;12.80;99.90;;;13.36;100.00;99532.69;4979665;28;119435;-76
2022/07/08 01:07:01;;;;;;;9.93;6.00;;;12.80;99.90;;;13.42;100.00;99537.63;4981366;28;129642;-75
2022/07/08 01:09:30;;;;;;;8.10;5.85;;;12.90;99.90;;;13.46;100.00;99529.56;4982080;28;129637;-74
2022/07/08 01:12:01;;;;;;;10.52;6.55;;;12.90;99.90;;;13.54;100.00;99528.75;4982197;28;119380;-77
2022/07/08 01:14:30;;;;;;;10.57;5.45;;;12.90;99.90;;;13.58;100.00;99524.22;4982042;28;119453;-74
2022/07/08 01:16:59;;;;;;;9.05;6.22;;;13.00;99.90;;;13.64;100.00;99528.34;4982022;28;130087;-74
2022/07/08 01:19:27;;;;;;;7.72;5.22;;;13.00;99.90;;;13.71;100.00;99518.84;4967745;28;128977;-74
2022/07/08 01:21:57;;;;;;;9.93;5.00;;;13.00;99.90;;;13.76;100.00;99529.53;4981733;28;120330;-74
2022/07/08 01:24:26;;;;;;;11.45;5.90;;;13.10;99.90;;;13.77;100.00;99525.69;4982845;28;120115;-75
2022/07/08 01:26:56;;;;;;;9.63;5.55;;;13.20;99.90;;;13.82;100.00;99528.22;4982476;28;129936;-76
2022/07/08 01:29:25;;;;;;;9.93;5.63;;;13.30;99.90;;;13.85;100.00;99522.09;4967708;28;128913;-76
2022/07/08 01:31:54;;;;;;;10.60;5.60;;;13.40;99.90;;;13.91;100.00;99531.66;4966623;28;121894;-75
2022/07/08 01:34:23;;;;;;;9.48;5.10;;;13.50;99.90;;;14.00;100.00;99523.44;4982411;28;121752;-75
2022/07/08 01:36:51;;;;;;;8.93;5.30;;;13.50;99.90;;;14.07;100.00;99531.06;4982059;28;129835;-75
2022/07/08 01:39:21;;;;;;;9.20;5.25;;;13.50;99.90;;;14.11;100.00;99521.09;4956257;28;129539;-75
2022/07/08 01:41:50;;;;;;;7.50;4.88;;;13.50;99.90;;;14.16;100.00;99537.25;4964366;28;119410;-74
2022/07/08 01:44:19;;;;;;;6.97;4.72;;;13.50;99.90;;;14.18;100.00;99524.09;4982309;28;119332;-76
2022/07/08 01:46:48;;;;;;;10.07;4.95;;;13.50;99.90;;;14.21;100.00;99526.16;4966745;28;129303;-75
2022/07/08 01:49:16;;;;;;;8.90;5.88;;;13.50;99.90;;;14.19;100.00;99531.94;4982346;28;129609;-75
2022/07/08 01:51:45;;;;;;;9.07;5.63;;;13.50;99.90;;;14.13;100.00;99529.72;4982257;28;119552;-75
2022/07/08 01:54:14;;;;;;;10.23;5.60;;;13.50;99.90;;;14.11;100.00;99523.81;4982500;28;120141;-76
2022/07/08 01:56:44;;;;;;;9.75;5.88;;;13.50;99.90;;;14.08;100.00;99535.41;4966088;28;130350;-79
2022/07/08 01:59:12;;;;;;;9.43;5.32;;;13.50;99.90;;;14.11;100.00;99530.06;4981674;28;129514;-76
2022/07/08 02:01:40;;;;;;;8.35;5.05;;;13.50;99.90;;;14.13;100.00;99527.00;4984192;28;119112;-75
2022/07/08 02:04:12;;;;;;;8.27;5.28;;;13.60;99.90;;;14.17;100.00;99530.66;4967104;28;118331;-75
2022/07/08 02:06:40;;;;;;;8.68;5.55;;;13.60;99.90;;;14.17;100.00;99528.72;4981635;28;129899;-74
2022/07/08 02:09:09;;;;;;;9.98;5.28;;;13.60;99.90;;;14.12;100.00;99528.94;4966775;28;128370;-75
2022/07/08 02:14:24;;;;;;;8.48;5.22;;;13.70;99.90;;;14.20;100.00;99538.19;4962052;28;119648;-74
2022/07/08 02:16:53;;;;;;;10.35;5.60;;;13.70;99.90;;;14.26;100.00;99542.31;4975945;28;129885;-79
2022/07/08 02:19:22;;;;;;;9.35;5.75;;;13.70;99.90;;;14.30;100.00;99547.88;4975074;28;129147;-74
2022/07/08 02:21:50;;;;;;;10.02;5.45;;;13.70;99.90;;;14.26;100.00;99542.31;4980198;28;122707;-75
2022/07/08 02:24:19;;;;;;;8.10;5.00;;;13.70;99.90;;;14.29;100.00;99538.91;4981755;28;121907;-75
2022/07/08 02:26:48;;;;;;;10.82;4.90;;;13.80;99.90;;;14.28;100.00;99539.25;4967094;28;129250;-73
2022/07/08 02:29:16;;;;;;;7.72;5.22;;;13.70;99.90;;;14.25;100.00;99540.69;4966492;28;128998;-74
2022/07/08 02:31:47;;;;;;;7.90;5.50;;;13.70;99.90;;;14.16;100.00;99549.00;4966875;28;118455;-74
2022/07/08 02:34:16;;;;;;;7.55;4.97;;;13.80;99.90;;;14.16;100.00;99553.63;4981853;28;119844;-78
2022/07/08 02:36:44;;;;;;;8.23;5.35;;;13.80;99.90;;;14.25;100.00;99557.09;4981249;28;131165;-75
2022/07/08 02:39:13;;;;;;;9.20;5.32;;;13.80;99.90;;;14.36;100.00;99560.19;4981439;28;130098;-76
2022/07/08 02:41:42;;;;;;;7.47;5.05;;;13.90;99.90;;;14.42;100.00;99549.88;4980895;28;119405;-75
2022/07/08 02:44:11;;;;;;;9.45;5.47;;;13.90;99.90;;;14.50;100.00;99559.91;4981820;28;120853;-75
2022/07/08 02:46:41;;;;;;;9.15;5.35;;;13.90;99.90;;;14.53;100.00;99559.25;4965009;28;128770;-75
2022/07/08 02:49:11;;;;;;;9.63;5.05;;;14.00;99.90;;;14.63;100.00;99553.41;4980099;28;130153;-75
2022/07/08 02:51:40;;;;;;;7.53;4.78;;;14.00;99.90;;;14.78;100.00;99562.06;4981062;28;119623;-79
2022/07/08 02:54:09;;;;;;;10.18;5.10;;;14.10;99.90;;;14.81;100.00;99561.41;4966011;28;118409;-73
2022/07/08 02:56:37;;;;;;;8.57;4.80;;;14.10;99.90;;;14.85;100.00;99556.84;4966091;28;129048;-75
2022/07/08 02:59:06;;;;;;;8.82;5.07;;;14.10;99.90;;;14.90;100.00;99562.09;4980544;28;129482;-75
2022/07/08 03:01:35;;;;;;;7.82;5.25;;;14.10;99.90;;;14.98;100.00;99569.41;4980986;28;119662;-74
2022/07/08 03:04:03;;;;;;;10.20;4.57;;;14.20;99.90;;;15.00;100.00;99561.66;4966299;28;119026;-73
2022/07/08 03:06:33;;;;;;;7.13;4.28;;;14.20;99.90;;;15.09;100.00;99561.56;4980300;28;130602;-73
2022/07/08 03:09:02;;;;;;;9.93;4.50;;;14.30;99.90;;;15.12;100.00;99571.81;4980792;28;129802;-74
2022/07/08 03:11:30;;;;;;;9.55;5.30;;;14.30;99.90;;;15.14;100.00;99574.19;4979854;28;122111;-79
2022/07/08 03:13:59;;;;;;;6.53;4.35;;;14.30;99.90;;;15.07;100.00;99572.81;4980768;28;122060;-74
2022/07/08 03:16:27;;;;;;;9.43;3.70;;;14.30;99.90;;;15.00;100.00;99561.66;4980545;28;129871;-73
2022/07/08 03:18:55;;;;;;;7.57;3.92;;;14.30;99.90;;;15.08;100.00;99571.69;4980325;28;129941;-76
2022/07/08 03:21:24;;;;;;;8.82;3.85;;;14.40;93.10;;;15.17;100.00;99576.25;4966065;28;119232;-74
2022/07/08 03:23:54;;;;;;;6.88;3.58;;;14.40;47.90;;;15.16;100.00;99578.19;4966130;28;119238;-74
2022/07/08 03:26:23;;;;;;;8.07;3.88;;;14.40;1.00;;;15.18;100.00;99575.13;4980117;28;129830;-76
2022/07/08 03:28:51;;;;;;;6.75;3.30;;;14.40;1.00;;;15.26;100.00;99577.72;4966177;28;129135;-75
2022/07/08 03:31:20;;;;;;;8.70;3.50;;;14.50;1.00;;;15.36;100.00;99571.00;4979644;28;120221;-75
2022/07/08 03:33:49;;;;;;;7.85;3.53;;;14.50;1.00;;;15.33;100.00;99576.38;4980531;28;119534;-75
2022/07/08 03:36:17;;;;;;;7.60;3.40;;;14.50;1.00;;;15.44;100.00;99582.97;4964769;28;128919;-80
2022/07/08 03:38:46;;;;;;;5.53;2.97;;;14.60;1.00;;;15.49;100.00;99579.22;4980167;28;129881;-74
2022/07/08 03:41:20;;;;;;;8.15;3.50;;;14.60;1.00;;;15.61;100.00;99571.00;4980161;28;119723;-76
2022/07/08 03:43:50;;;;;;;6.75;3.80;;;14.70;1.00;;;15.66;100.00;99581.72;4980077;28;119360;-74
2022/07/08 03:46:19;;;;;;;8.05;3.90;;;14.80;1.00;;;15.89;100.00;99578.53;4979896;28;130402;-80
2022/07/08 03:48:48;;;;;;;5.90;3.20;;;15.00;1.00;;;16.00;100.00;99579.63;4965368;28;129131;-74
2022/07/08 03:51:18;;;;;;;7.97;3.70;;;15.00;1.00;;;16.10;99.31;99587.38;4980501;28;119528;-75
2022/07/08 03:53:47;;;;;;;5.32;2.90;;;15.10;1.00;;;16.21;98.51;99589.63;5002882;28;119748;-74
2022/07/08 03:56:17;;;;;;;4.72;3.22;;;15.20;1.00;;;16.25;97.96;99593.25;5005183;28;129144;-74
2022/07/08 03:58:48;;;;;;;6.57;3.30;;;15.30;1.00;;;16.25;96.92;99587.78;5022363;28;102694;-75
2022/07/08 04:01:17;;;;;;;6.65;2.97;;;15.30;1.00;;;16.27;97.43;99593.72;5019027;28;122541;-75
2022/07/08 04:03:46;;;;;;;5.13;3.15;;;15.30;1.00;;;16.37;96.56;99592.44;5020414;28;121810;-76
2022/07/08 04:06:14;;;;;;;7.65;3.30;;;15.30;1.00;;;16.53;95.85;99599.56;5005014;28;128977;-75
2022/07/08 04:08:43;;;;;;;5.63;2.80;;;15.50;1.00;;;16.65;95.05;99595.16;5019518;28;130071;-77
2022/07/08 04:11:13;;;;;;;6.57;2.63;;;15.60;1.00;;;16.79;89.85;99595.53;5020356;28;119535;-76
2022/07/08 04:13:43;;;;;;;8.18;2.90;;;15.50;1.00;;;16.84;86.63;99597.22;5019621;28;120631;-76
2022/07/08 04:16:12;;;;;;;5.43;2.45;;;15.60;1.00;;;17.15;86.80;99606.66;5004839;28;129807;-74
2022/07/08 04:18:41;;;;;;;9.80;3.35;;;15.90;1.00;;;17.46;84.50;99605.88;5005138;28;128841;-78
2022/07/08 04:21:10;;;;;;;5.10;2.60;;;16.00;1.00;;;17.46;82.02;99605.88;5019834;28;119681;-74
2022/07/08 04:23:40;;;;;;;5.80;2.55;;;16.10;1.00;;;17.49;82.23;99594.19;5020090;28;119620;-76
2022/07/08 04:26:09;;;;;;;6.30;2.70;;;16.10;1.00;;;17.54;80.94;99599.38;5018035;28;129953;-77
2022/07/08 04:28:38;;;;;;;8.57;2.15;;;16.20;99.90;;;17.56;79.96;99594.34;5014436;28;129525;-74
2022/07/08 04:31:08;;;;;;;5.10;2.38;;;16.20;99.90;;;17.64;80.24;99592.56;5003256;28;119183;-77
2022/07/08 04:33:37;;;;;;;4.53;2.15;;;16.30;99.90;;;17.74;80.21;99604.94;5036469;27;120144;-76
2022/07/08 04:36:07;;;;;;;5.25;2.90;;;16.40;99.90;;;17.81;80.13;99602.38;5019445;27;129892;-79
2022/07/08 04:38:35;;;;;;;8.05;2.97;;;16.40;99.90;;;18.01;80.58;99596.94;5005692;28;129729;-74
2022/07/08 04:41:05;;;;;;;7.43;2.67;;;16.60;99.90;;;18.12;78.88;99597.94;5002750;28;119049;-75
2022/07/08 04:43:33;;;;;;;4.38;2.28;;;16.60;99.90;;;18.15;78.99;99591.75;5010868;28;119494;-75
2022/07/08 04:46:02;;;;;;;8.43;2.80;;;16.60;99.90;;;18.21;79.67;99603.25;5002941;28;130460;-77
2022/07/08 04:48:32;;;;;;;8.07;2.40;;;16.70;99.90;;;18.09;79.56;99610.47;5002570;28;130078;-75
2022/07/08 04:51:00;;;;;;;5.85;2.55;;;16.60;99.90;;;17.99;78.25;99605.53;4986624;28;120954;-74
2022/07/08 04:53:29;;;;;;;6.78;3.00;;;16.60;99.90;;;18.13;78.87;99610.53;5004761;28;121691;-78
2022/07/08 04:55:57;;;;;;;8.73;3.08;;;16.70;99.90;;;18.39;78.07;99617.38;5002189;28;130556;-76
2022/07/08 04:58:25;;;;;;;7.03;2.80;;;16.60;99.90;;;18.68;77.54;99608.53;5002388;28;130399;-76
2022/07/08 05:00:54;;;;;;;6.00;2.60;;;16.70;99.90;;;18.87;75.20;99598.69;4987708;28;118616;-76
2022/07/08 05:03:23;;;;;;;8.10;2.70;;;17.00;99.90;;;19.03;74.67;99596.59;5002964;28;119834;-73
2022/07/08 05:05:53;;;;;;;5.43;2.70;;;17.20;99.90;;;18.99;74.40;99595.75;5002165;28;129896;-76
2022/07/08 05:08:21;;;;;;;6.00;2.17;;;17.30;99.90;;;19.15;72.51;99597.59;5002765;28;129805;-76
2022/07/08 05:10:50;;;;;;;5.93;2.60;;;17.50;99.90;;;19.57;70.26;99613.19;5002595;28;119952;-75
2022/07/08 05:13:18;;;;;;;6.25;2.03;;;17.70;99.90;;;19.69;68.44;99604.72;5002568;28;119335;-74
2022/07/08 05:15:46;;;;;;;5.45;2.28;;;17.90;99.90;;;19.79;68.36;99602.53;5000575;28;129741;-76
2022/07/08 05:18:15;;;;;;;5.55;2.30;;;17.90;99.90;;;19.88;68.16;99595.63;5001631;28;129673;-75
2022/07/08 05:20:43;;;;;;;6.28;2.10;;;18.10;99.90;;;19.87;67.47;99604.25;5002628;28;119636;-76
2022/07/08 05:23:13;;;;;;;5.97;2.00;;;18.00;99.90;;;20.01;67.00;99604.44;5002775;28;119614;-74
2022/07/08 05:25:42;;;;;;;5.68;1.90;;;18.20;99.90;;;20.03;66.13;99599.34;4987432;28;129769;-74
2022/07/08 05:28:10;;;;;;;4.65;1.60;;;18.10;99.90;;;20.22;65.09;99603.13;4987457;28;129449;-74
2022/07/08 05:30:39;;;;;;;6.35;1.88;;;18.20;99.90;;;20.35;64.97;99604.50;5002250;28;119591;-75
2022/07/08 05:33:07;;;;;;;6.13;2.33;;;18.30;99.90;;;20.59;64.23;99599.66;5000580;28;119851;-74
2022/07/08 05:35:36;;;;;;;7.30;1.98;;;18.60;99.90;;;20.36;63.66;99595.03;5002015;28;130553;-77
2022/07/08 05:38:05;;;;;;;6.22;1.95;;;18.30;99.90;;;20.42;64.35;99601.81;4987046;28;128617;-74
2022/07/08 05:40:35;;;;;;;5.72;1.80;;;18.30;99.90;;;20.63;63.45;99600.47;5001232;28;121771;-75
2022/07/08 05:43:04;;;;;;;5.00;1.98;;;18.30;99.90;;;20.87;63.83;99603.91;5002205;28;122649;-76
2022/07/08 05:45:32;;;;;;;5.35;1.50;;;18.50;99.90;;;20.56;62.64;99594.88;5001918;28;130999;-76
2022/07/08 05:48:01;;;;;;;6.18;2.10;;;18.40;99.90;;;20.42;63.50;99588.03;5001819;28;130325;-75
2022/07/08 05:50:30;;;;;;;4.60;1.52;;;18.30;99.90;;;20.38;64.14;99603.75;5001542;28;120361;-75
2022/07/08 05:52:59;;;;;;;7.50;2.00;;;18.40;99.90;;;20.14;66.45;99590.44;5002924;28;120284;-77
2022/07/08 05:55:28;;;;;;;8.98;3.03;;;18.50;99.90;;;20.26;67.42;99603.97;5002368;28;129911;-76
2022/07/08 05:57:58;;;;;;;6.10;2.25;;;18.20;99.90;;;20.29;66.11;99600.47;5001919;28;129577;-74
2022/07/08 06:00:26;;;;;;;10.98;2.58;;;18.30;99.90;;;20.39;66.74;99597.03;4987233;28;118617;-80
2022/07/08 06:02:55;;;;;;;6.65;2.00;;;18.20;99.90;;;20.37;65.32;99588.38;5002110;28;120108;-77
2022/07/08 06:05:24;;;;;;;5.78;2.20;;;17.70;99.90;;;20.61;65.28;99597.28;5000142;28;130615;-76
2022/07/08 06:07:53;;;;;;;4.57;1.88;;;18.00;99.90;;;20.86;65.73;99600.34;4986643;28;128546;-82
2022/07/08 06:10:21;;;;;;;6.25;2.35;;;18.40;99.90;;;21.21;64.88;99603.81;4987171;28;118217;-75
2022/07/08 06:12:50;;;;;;;3.42;1.70;;;18.70;99.90;;;21.32;61.70;99607.47;5001850;28;119655;-74
2022/07/08 06:15:20;;;;;;;6.20;1.90;;;18.60;99.90;;;21.59;60.17;99602.56;5001398;28;130693;-81
2022/07/08 06:17:49;;;;;;;5.05;1.70;;;19.20;99.90;;;21.73;60.90;99610.16;5019328;28;129554;-75
2022/07/08 06:20:17;;;;;;;6.43;1.80;;;19.40;99.90;;;21.81;58.33;99614.56;5021458;28;120077;-75
2022/07/08 06:22:46;;;;;;;5.75;1.60;;;19.00;99.90;;;21.94;57.78;99608.72;5021295;28;120165;-72
2022/07/08 06:25:15;;;;;;;5.68;1.98;;;19.30;99.90;;;21.70;56.90;99605.41;5020861;28;129875;-75
2022/07/08 06:27:43;;;;;;;4.22;1.20;;;19.40;99.90;;;21.77;58.22;99611.00;5020818;28;130488;-74
2022/07/08 06:30:13;;;;;;;5.43;1.60;;;19.50;99.90;;;21.23;54.07;99609.75;5005327;28;120828;-75
2022/07/08 06:32:43;;;;;;;3.70;1.13;;;19.00;99.90;;;21.23;54.50;99605.03;5006331;28;120748;-74
2022/07/08 06:35:12;;;;;;;2.80;1.20;;;19.00;99.90;;;20.80;56.76;99610.13;5006367;28;129853;-74
2022/07/08 06:37:40;;;;;;;2.42;1.00;;;18.80;99.90;;;20.64;57.96;99607.56;5021001;28;129550;-75
2022/07/08 06:40:10;;;;;;;4.55;1.40;;;18.70;99.90;;;21.33;54.05;99620.09;5021378;28;119804;-75
2022/07/08 06:42:38;;;;;;;5.28;2.00;;;18.80;99.90;;;21.48;54.37;99612.72;5020486;28;119695;-77
2022/07/08 06:45:10;;;;;;;6.22;1.70;;;19.30;99.90;;;21.25;56.92;99601.88;5001899;28;131042;-75
2022/07/08 06:47:38;;;;;;;7.63;1.75;;;19.40;99.90;;;21.12;58.05;99617.94;5022719;28;128243;-76
2022/07/08 06:50:10;;;;;;;4.80;1.75;;;19.30;99.90;;;21.57;57.45;99604.16;5021058;28;120835;-76
2022/07/08 06:52:39;;;;;;;5.47;1.55;;;19.20;99.90;;;22.01;56.34;99614.28;5003799;28;120037;-78
2022/07/08 06:55:08;;;;;;;5.05;1.45;;;19.30;99.90;;;22.40;55.35;99619.25;5019357;28;130190;-78
2022/07/08 06:57:37;;;;;;;5.68;1.50;;;19.60;99.90;;;22.68;52.68;99617.75;5021873;28;128719;-78
2022/07/08 07:00:07;;;;;;;6.18;1.70;;;19.70;99.90;;;22.77;49.77;99620.94;5020989;28;119467;-76
2022/07/08 07:02:36;;;;;;;3.53;1.30;;;19.50;99.90;;;22.91;51.22;99612.66;5005520;28;118406;-77
2022/07/08 07:05:06;;;;;;;3.60;1.00;;;20.00;99.90;;;23.01;45.12;99618.63;5005314;28;129748;-75
2022/07/08 07:07:36;;;;;;;3.63;1.17;;;19.90;99.90;;;23.38;45.10;99609.97;5020377;28;130161;-76
2022/07/08 07:10:05;;;;;;;3.30;1.00;;;20.30;99.90;;;23.52;45.58;99614.72;5003101;28;119891;-76
2022/07/08 07:12:34;;;;;;;7.72;1.70;;;20.50;99.90;;;23.72;43.48;99609.56;5003130;28;119607;-78
2022/07/08 07:15:03;;;;;;;3.30;0.98;;;20.50;99.90;;;23.76;42.71;99604.00;5022532;28;129531;-77
2022/07/08 07:17:32;;;;;;;4.70;1.00;;;20.30;99.90;;;23.61;44.84;99604.03;5019262;28;130069;-75
2022/07/08 07:20:01;;;;;;;2.35;0.98;;;20.30;99.90;;;23.67;45.54;99610.75;5001485;28;122069;-77
2022/07/08 07:22:29;;;;;;;2.53;0.82;;;20.40;99.90;;;23.59;42.72;99614.72;5006018;28;121088;-75
2022/07/08 07:24:59;;;;;;;3.80;1.10;;;19.60;99.90;;;23.40;43.44;99606.81;5020762;28;129491;-75
2022/07/08 07:27:28;;;;;;;3.83;1.20;;;19.70;99.90;;;23.48;45.02;99608.38;5020357;28;129561;-77
2022/07/08 07:29:56;;;;;;;5.70;1.30;;;20.30;99.90;;;23.72;46.33;99601.25;5019580;28;119623;-78
2022/07/08 07:32:25;;;;;;;3.67;1.00;;;20.60;99.90;;;23.86;44.52;99600.44;5022790;28;118840;-76
2022/07/08 07:34:54;;;;;;;6.05;1.38;;;20.80;99.90;;;23.72;44.16;99600.44;5020019;28;129942;-78
2022/07/08 07:37:23;;;;;;;6.47;1.27;;;20.50;99.90;;;23.67;42.25;99605.19;5020476;28;129717;-79
2022/07/08 07:39:51;;;;;;;4.10;1.25;;;20.50;99.90;;;23.60;41.83;99616.28;5005959;28;118817;-75
2022/07/08 07:42:22;;;;;;;4.05;1.20;;;20.00;99.90;;;23.49;41.65;99607.19;5020520;28;119395;-75
2022/07/08 07:44:50;;;;;;;4.55;1.40;;;19.60;99.90;;;23.56;44.20;99601.66;5019014;28;129608;-75
2022/07/08 07:47:19;;;;;;;5.03;1.27;;;20.10;99.90;;;23.71;42.74;99609.94;5011680;28;129568;-73
2022/07/08 07:49:48;;;;;;;4.00;1.10;;;20.20;99.90;;;23.61;43.50;99601.25;5020513;28;119978;-77
2022/07/08 07:52:16;;;;;;;5.07;1.33;;;20.20;99.90;;;23.78;42.44;99601.59;5005364;28;117866;-79
2022/07/08 07:54:45;;;;;;;6.95;1.90;;;20.80;99.90;;;23.56;43.24;99604.44;5020008;28;130225;-75
2022/07/08 07:57:13;;;;;;;3.83;1.42;;;21.00;99.90;;;23.40;45.36;99612.34;5020049;28;130236;-74
2022/07/08 07:59:45;;;;;;;3.75;1.20;;;21.20;99.90;;;23.17;48.49;99594.16;5020152;28;119586;-81
2022/07/08 08:02:13;;;;;;;6.00;1.30;;;21.00;99.90;;;23.54;47.37;99601.25;5005876;28;118745;-78
2022/07/08 08:04:44;;;;;;;6.72;1.70;;;21.00;99.90;;;23.90;49.22;99592.91;5019644;28;129963;-75
2022/07/08 08:07:12;;;;;;;5.40;1.23;;;21.00;99.90;;;24.05;46.21;99593.66;5019885;28;129410;-78
2022/07/08 08:09:41;;;;;;;8.07;1.73;;;20.70;99.90;;;23.93;46.88;99594.88;5018917;28;121973;-78
2022/07/08 08:12:10;;;;;;;12.52;1.80;;;20.50;99.90;;;23.76;45.26;99595.69;5016228;28;121962;-76
2022/07/08 08:14:39;;;;;;;4.75;1.50;;;20.50;99.90;;;23.57;44.94;99594.91;5017797;28;130184;-71
2022/07/08 08:17:09;;;;;;;7.85;1.45;;;20.90;99.90;;;23.58;44.51;99593.75;5003712;28;129252;-72
2022/07/08 08:19:37;;;;;;;5.07;1.20;;;20.70;99.90;;;22.89;46.60;99595.69;5019525;28;119725;-74
2022/07/08 08:22:06;;;;;;;3.78;1.25;;;20.70;99.90;;;22.66;48.41;99592.44;5019527;28;119304;-77
2022/07/08 08:24:35;;;;;;;5.32;1.85;;;20.90;99.90;;;22.64;47.74;99595.63;5019181;28;130704;-77
2022/07/08 08:27:04;;;;;;;5.45;1.83;;;20.20;99.90;;;22.49;48.48;99596.75;4986909;28;129851;-77
2022/07/08 08:29:32;;;;;;;5.80;1.70;;;20.50;99.90;;;22.45;47.21;99599.50;4998789;28;119361;-76
2022/07/08 08:32:01;;;;;;;7.35;1.80;;;20.50;99.90;;;22.25;49.84;99597.03;5002565;28;117855;-77
2022/07/08 08:34:32;;;;;;;5.53;1.30;;;20.40;99.90;;;23.06;48.31;99593.31;5018228;28;129873;-76
2022/07/08 08:37:00;;;;;;;5.80;1.88;;;21.10;99.90;;;23.69;46.75;99594.50;5001019;28;129602;-77
2022/07/08 08:39:29;;;;;;;4.57;1.30;;;21.20;99.90;;;24.19;45.37;99587.28;5019526;28;120520;-75
2022/07/08 08:41:59;;;;;;;7.47;1.30;;;21.80;99.90;;;24.49;42.26;99583.19;5018897;28;119240;-75
2022/07/08 08:44:29;;;;;;;4.88;1.48;;;21.90;95.60;;;23.60;43.84;99587.81;5017850;28;130004;-75
2022/07/08 08:46:59;;;;;;;5.13;1.20;;;21.30;99.90;;;23.17;43.89;99591.41;5019557;28;129572;-77
2022/07/08 08:49:31;;;;;;;5.78;1.60;;;20.60;99.90;;;23.51;43.85;99591.78;5019537;28;120313;-76
2022/07/08 08:52:05;;;;;;;3.28;0.98;;;20.50;99.90;;;23.49;41.91;99587.81;5004461;28;118688;-74
2022/07/08 08:54:36;;;;;;;4.68;1.30;;;20.70;96.70;;;23.72;41.99;99583.81;5019180;28;130279;-76
2022/07/08 08:57:06;;;;;;;4.30;1.17;;;21.00;99.90;;;23.36;42.26;99595.75;5018846;28;129376;-75
2022/07/08 08:59:36;;;;;;;4.00;1.10;;;21.00;94.60;;;23.26;43.91;99583.47;5016986;28;121859;-74
2022/07/08 09:02:06;;;;;;;6.60;1.23;;;20.60;99.90;;;23.61;42.82;99589.41;5018078;28;121958;-74
2022/07/08 09:04:34;;;;;;;4.97;1.45;;;20.50;99.90;;;23.73;42.25;99591.72;5018044;28;130680;-76
2022/07/08 09:07:05;;;;;;;5.30;1.67;;;20.70;99.90;;;23.47;42.45;99579.13;5017888;28;129465;-75
2022/07/08 09:09:33;;;;;;;3.08;1.05;;;20.60;96.10;;;23.10;43.85;99580.31;5004459;28;119111;-76
2022/07/08 09:12:22;;;;;;;5.82;1.25;;;20.50;99.90;;;22.87;44.13;99584.19;5019334;28;119532;-76
2022/07/08 09:14:52;;;;;;;4.80;1.23;;;20.30;99.90;;;22.91;45.08;99576.69;5021180;28;129645;-75
2022/07/08 09:17:21;;;;;;;6.18;1.27;;;20.20;99.90;;;22.90;40.89;99582.63;5019374;28;130188;-76
2022/07/08 09:19:51;;;;;;;5.75;1.45;;;20.30;65.40;;;23.49;39.81;99579.50;5004455;28;118648;-75
2022/07/08 09:22:24;;;;;;;4.00;1.17;;;20.80;52.10;;;23.69;38.75;99580.66;4987740;28;118330;-75
2022/07/08 09:24:56;;;;;;;6.10;1.80;;;21.00;38.20;;;23.27;38.90;99573.97;5017963;28;129798;-79
2022/07/08 09:27:24;;;;;;;3.83;1.25;;;20.40;57.90;;;23.75;37.91;99566.38;5022341;28;129520;-75
2022/07/08 09:29:58;;;;;;;3.10;1.02;;;20.80;47.70;;;24.29;39.34;99566.25;5007805;28;119104;-73
2022/07/08 09:32:27;;;;;;;3.97;1.20;;;21.70;60.00;;;23.82;37.92;99560.84;5022551;28;119399;-76
2022/07/08 09:34:56;;;;;;;5.15;1.23;;;21.70;35.80;;;24.46;36.41;99570.13;5022103;28;130339;-76
2022/07/08 09:37:26;;;;;;;2.28;0.90;;;21.70;25.50;;;24.86;36.37;99554.06;5024420;28;128676;-80
2022/07/08 09:39:55;;;;;;;3.33;0.93;;;21.70;30.70;;;24.70;35.34;99560.91;5022722;28;119539;-75
2022/07/08 09:42:23;;;;;;;5.05;1.30;;;21.60;21.00;;;24.26;38.17;99562.28;5023203;28;119411;-75
2022/07/08 09:44:53;;;;;;;3.92;1.17;;;21.20;38.50;;;24.15;39.31;99567.91;5022256;28;129702;-74
2022/07/08 09:47:22;;;;;;;3.88;1.50;;;21.10;61.10;;;23.54;42.93;99562.47;5022336;28;129404;-76
2022/07/08 09:49:50;;;;;;;5.35;1.48;;;20.90;98.40;;;23.27;43.90;99578.72;5006691;28;121645;-74
2022/07/08 09:52:23;;;;;;;16.75;1.92;;;20.50;99.90;;;22.90;44.54;99580.63;5023699;28;121484;-74
2022/07/08 09:55:04;;;;;;;7.97;1.40;;;20.30;99.90;;;22.69;46.52;99575.06;5005563;28;130477;-76
2022/07/08 09:57:35;;;;;;;4.78;1.30;;;20.30;99.90;;;22.62;46.11;99570.31;5007873;28;128608;-72
2022/07/08 10:00:04;;;;;;;3.60;1.30;;;20.00;99.90;;;22.57;47.26;99568.72;5023774;28;119937;-78
2022/07/08 10:02:42;;;;;;;4.20;1.25;;;20.10;99.90;;;22.54;47.06;99572.28;5008054;28;119318;-77
2022/07/08 10:05:11;;;;;;;6.15;1.60;;;20.10;99.90;;;22.55;45.87;99571.09;5007683;28;128671;-76
2022/07/08 10:07:39;;;;;;;7.75;1.63;;;20.10;99.90;;;22.68;45.89;99568.75;5021820;28;129511;-75
2022/07/08 10:10:10;;;;;;;5.20;1.40;;;20.00;99.90;;;22.81;45.99;99574.69;5021543;28;119659;-75
2022/07/08 10:12:39;;;;;;;4.35;1.30;;;20.10;99.90;;;22.95;44.90;99569.22;5021577;28;119538;-75
2022/07/08 10:15:10;;;;;;;4.45;1.70;;;20.10;99.90;;;23.12;45.92;99564.91;5019990;28;129892;-78
2022/07/08 10:17:43;;;;;;;7.68;1.73;;;20.60;99.90;;;23.33;44.92;99564.09;5021134;28;130358;-75
2022/07/08 10:20:15;;;;;;;5.47;1.63;;;20.40;99.90;;;23.60;44.81;99565.66;5021229;28;120198;-77
2022/07/08 10:22:48;;;;;;;4.00;1.58;;;20.70;99.90;;;23.74;43.42;99553.75;5006852;28;119600;-76